SAAC/COC METAR and TAF weather

Enter ICAO airport designator
Station Type Date Time Source
SAAC METAR 2020/01/19 23:20 UTC NOAA

SAAC 192320Z 32006KT 9999 TS FEW050CB BKN050 31/24 Q1010


Station Type Date Time Source
SAAC Decoded METAR 2020/01/19 23:20 UTC NOAA

Concordia Aerodrome, Argentina (SAAC) 31-18S 058-01W 38M
Jan 19, 2020 - 06:20 PM EST / 2020.01.19 2320 UTC
Wind: from the NW (320 degrees) at 7 MPH (6 KT):0
Visibility: greater than 7 mile(s):0
Sky conditions: mostly cloudy
Weather: thunder; Cumulonimbus clouds observed
Temperature: 87 F (31 C)
Heat index: 95.7 F (35.4 C):1
Dew Point: 75 F (24 C)
Relative Humidity: 66%
Pressure (altimeter): 29.83 in. Hg (1010 hPa)
ob: SAAC 192320Z 32006KT 9999 TS FEW050CB BKN050 31/24 Q1010
cycle: 23

Station Type Date Time Source
SAAC TAF UTC NOAA

Error!

Example: see airport list